Terminal Aerodrome Forecast
Issued by NWS

Home | Current Version | Previous Version | Text Only | Print | Product List | Glossary On
Versions: 1 2 3 4 5 6 7 8 9 10 11 12 13 14 15 16
569
FTUS43 KDLH 271120
TAFHYR
TAF
KHYR 271120Z 2712/2812 36004KT 5SM -SN BR OVC008
      TEMPO 2712/2715 2SM -SN BR
     FM271500 35004KT P6SM VCSH OVC008
     FM271700 30007KT P6SM OVC008
     FM271900 29008KT P6SM OVC010
     FM280300 27005KT P6SM BKN020
     FM280600 26005KT P6SM BKN015=

USA.gov is the U.S. government's official web portal to all federal, state and local government web resources and services.